createdAt,value
2023-01-19T00:01:39.593Z,-0.34
2023-01-19T00:04:07.716Z,-0.34
2023-01-19T00:06:37.351Z,-0.35
2023-01-19T00:09:05.293Z,-0.41
2023-01-19T00:11:33.131Z,-0.42
2023-01-19T00:14:01.075Z,-0.42
2023-01-19T00:16:29.178Z,-0.44
2023-01-19T00:18:57.056Z,-0.46
2023-01-19T00:21:25.046Z,-0.50
2023-01-19T00:23:54.320Z,-0.52
2023-01-19T00:26:23.168Z,-0.56
2023-01-19T00:28:51.283Z,-0.56
2023-01-19T00:31:21.722Z,-0.60
2023-01-19T00:33:51.580Z,-0.62
2023-01-19T00:36:20.583Z,-0.62
2023-01-19T00:38:48.653Z,-0.66
2023-01-19T00:41:18.454Z,-0.67
2023-01-19T00:43:45.628Z,-0.69
2023-01-19T00:46:13.653Z,-0.71
2023-01-19T00:48:41.753Z,-0.75
2023-01-19T00:51:09.791Z,-0.78
2023-01-19T00:53:37.723Z,-0.77
2023-01-19T00:56:06.070Z,-0.76
2023-01-19T00:58:35.656Z,-0.78
2023-01-19T01:01:04.911Z,-0.81
2023-01-19T01:03:33.719Z,-0.82
2023-01-19T01:06:03.572Z,-0.81
2023-01-19T01:08:31.584Z,-0.81
2023-01-19T01:10:59.434Z,-0.81
2023-01-19T01:13:28.466Z,-0.80
2023-01-19T01:15:58.511Z,-0.79
2023-01-19T01:18:26.417Z,-0.79
2023-01-19T01:21:01.366Z,-0.79
2023-01-19T01:23:29.387Z,-0.75
2023-01-19T01:25:57.221Z,-0.77
2023-01-19T01:28:25.510Z,-0.77
2023-01-19T01:30:55.142Z,-0.76
2023-01-19T01:33:41.113Z,-0.73
2023-01-19T01:36:10.598Z,-0.70
2023-01-19T01:38:39.288Z,-0.68
2023-01-19T01:41:07.385Z,-0.66
2023-01-19T01:43:46.794Z,-0.61
2023-01-19T01:46:17.038Z,-0.62
2023-01-19T01:48:52.426Z,-0.62
2023-01-19T01:51:25.530Z,-0.63
2023-01-19T01:54:01.336Z,-0.65
2023-01-19T01:57:02.794Z,-0.68
2023-01-19T01:59:39.370Z,-0.69
2023-01-19T02:02:28.133Z,-0.75
2023-01-19T02:05:04.019Z,-0.79
2023-01-19T02:07:57.009Z,-0.78
2023-01-19T02:10:42.440Z,-0.81
2023-01-19T02:13:25.772Z,-0.78
2023-01-19T02:15:55.570Z,-0.78
2023-01-19T02:18:25.578Z,-0.77
2023-01-19T02:21:01.820Z,-0.77
2023-01-19T02:23:50.557Z,-0.76
2023-01-19T02:26:21.776Z,-0.72
2023-01-19T02:28:54.099Z,-0.67
2023-01-19T02:31:22.305Z,-0.61
2023-01-19T02:34:04.456Z,-0.58
2023-01-19T02:36:36.854Z,-0.52
2023-01-19T02:39:09.419Z,-0.46
2023-01-19T02:41:45.285Z,-0.46
2023-01-19T02:44:16.290Z,-0.45
2023-01-19T02:46:44.099Z,-0.43
2023-01-19T02:49:14.905Z,-0.36
2023-01-19T02:51:45.101Z,-0.32
2023-01-19T02:54:31.096Z,-0.28
2023-01-19T02:57:27.788Z,-0.25
2023-01-19T03:00:09.704Z,-0.25
2023-01-19T03:02:47.042Z,-0.29
2023-01-19T03:05:30.554Z,-0.27
2023-01-19T03:08:07.736Z,-0.29
2023-01-19T03:10:46.628Z,-0.29
2023-01-19T03:13:24.694Z,-0.31
2023-01-19T03:15:56.622Z,-0.29
2023-01-19T03:18:28.036Z,-0.31
2023-01-19T03:20:58.952Z,-0.33
2023-01-19T03:23:31.914Z,-0.35
2023-01-19T03:26:02.895Z,-0.38
2023-01-19T03:28:31.463Z,-0.43
2023-01-19T03:31:04.348Z,-0.43
2023-01-19T03:33:35.122Z,-0.44
2023-01-19T03:36:08.974Z,-0.42
2023-01-19T03:38:39.482Z,-0.39
2023-01-19T03:41:15.510Z,-0.42
2023-01-19T03:43:45.448Z,-0.39
2023-01-19T03:46:17.318Z,-0.39
2023-01-19T03:48:46.013Z,-0.38
2023-01-19T03:51:14.491Z,-0.40
2023-01-19T03:53:43.027Z,-0.40
2023-01-19T03:56:19.376Z,-0.41
2023-01-19T03:58:47.541Z,-0.39
2023-01-19T04:01:16.119Z,-0.39
2023-01-19T04:03:44.758Z,-0.36
2023-01-19T04:06:12.800Z,-0.38
2023-01-19T04:08:44.392Z,-0.37
2023-01-19T04:11:13.269Z,-0.36
2023-01-19T04:13:42.554Z,-0.37
2023-01-19T04:16:12.399Z,-0.31
2023-01-19T04:18:42.149Z,-0.31
2023-01-19T04:21:10.517Z,-0.27
2023-01-19T04:23:38.368Z,-0.21
2023-01-19T04:26:08.196Z,-0.24
2023-01-19T04:28:37.379Z,-0.21
2023-01-19T04:31:07.641Z,-0.21
2023-01-19T04:33:35.684Z,-0.17
2023-01-19T04:36:04.257Z,-0.17
2023-01-19T04:38:32.148Z,-0.16
2023-01-19T04:41:00.015Z,-0.13
2023-01-19T04:43:27.930Z,-0.13
2023-01-19T04:45:56.184Z,-0.12
2023-01-19T04:48:25.493Z,-0.11
2023-01-19T04:50:53.945Z,-0.12
2023-01-19T04:53:22.200Z,-0.15
2023-01-19T04:55:54.535Z,-0.13
2023-01-19T04:58:22.430Z,-0.14
2023-01-19T05:01:15.875Z,-0.10
2023-01-19T05:03:45.317Z,-0.10
2023-01-19T05:06:13.173Z,-0.09
2023-01-19T05:08:40.961Z,-0.06
2023-01-19T05:11:08.801Z,-0.03
2023-01-19T05:13:37.357Z,0.00
2023-01-19T05:16:06.200Z,0.00
2023-01-19T05:18:37.090Z,0.04
2023-01-19T05:21:07.542Z,0.07
2023-01-19T05:23:35.534Z,0.07
2023-01-19T05:26:04.026Z,0.13
2023-01-19T05:28:33.551Z,0.15
2023-01-19T05:31:01.490Z,0.19
2023-01-19T05:33:29.323Z,0.22
2023-01-19T05:35:57.409Z,0.27
2023-01-19T05:38:35.457Z,0.30
2023-01-19T05:41:04.461Z,0.33
2023-01-19T05:43:32.323Z,0.38
2023-01-19T05:46:00.621Z,0.41
2023-01-19T05:48:28.722Z,0.44
2023-01-19T05:50:59.309Z,0.49
2023-01-19T05:53:29.216Z,0.53
2023-01-19T05:56:01.317Z,0.56
2023-01-19T05:58:29.409Z,0.62
2023-01-19T06:00:57.340Z,0.62
2023-01-19T06:03:25.367Z,0.62
2023-01-19T06:05:53.158Z,0.63
2023-01-19T06:08:20.985Z,0.65
2023-01-19T06:10:50.160Z,0.64
2023-01-19T06:13:18.194Z,0.61
2023-01-19T06:15:46.840Z,0.55
2023-01-19T06:18:15.829Z,0.52
2023-01-19T06:20:43.826Z,0.51
2023-01-19T06:23:11.705Z,0.46
2023-01-19T06:25:39.574Z,0.43
2023-01-19T06:28:08.692Z,0.42
2023-01-19T06:30:36.585Z,0.38
2023-01-19T06:33:04.517Z,0.29
2023-01-19T06:35:32.358Z,0.31
2023-01-19T06:38:00.136Z,0.23
2023-01-19T06:40:27.970Z,0.20
2023-01-19T06:42:55.815Z,0.15
2023-01-19T06:45:24.954Z,0.12
2023-01-19T06:47:52.770Z,0.06
2023-01-19T06:50:20.851Z,0.10
2023-01-19T06:52:50.978Z,-0.01
2023-01-19T06:55:19.087Z,0.00
2023-01-19T06:57:47.641Z,-0.10
2023-01-19T07:00:17.248Z,-0.13
2023-01-19T07:02:46.588Z,-0.09
2023-01-19T07:05:14.651Z,-0.04
2023-01-19T07:07:43.269Z,-0.02
2023-01-19T07:10:13.023Z,-0.06
2023-01-19T07:12:40.911Z,-0.01
2023-01-19T07:15:11.695Z,-0.07
2023-01-19T07:17:39.546Z,-0.03
2023-01-19T07:20:14.349Z,-0.01
2023-01-19T07:22:43.496Z,0.03
2023-01-19T07:25:11.589Z,0.02
2023-01-19T07:27:40.439Z,0.02
2023-01-19T07:30:09.588Z,0.04
2023-01-19T07:32:38.259Z,0.00
2023-01-19T07:35:08.088Z,0.01
2023-01-19T07:37:36.339Z,0.06
2023-01-19T07:40:04.603Z,0.01
2023-01-19T07:42:32.419Z,-0.03
2023-01-19T07:45:00.957Z,0.03
2023-01-19T07:47:28.779Z,0.07
2023-01-19T07:49:56.610Z,0.05
2023-01-19T07:52:25.756Z,0.07
2023-01-19T07:54:53.582Z,0.06
2023-01-19T07:57:22.036Z,0.02
2023-01-19T07:59:49.860Z,0.04
2023-01-19T08:02:17.751Z,0.00
2023-01-19T08:04:48.511Z,0.02
2023-01-19T08:07:16.489Z,0.03
2023-01-19T08:09:45.658Z,0.07
2023-01-19T08:12:13.449Z,0.10
2023-01-19T08:14:41.368Z,0.09
2023-01-19T08:17:13.895Z,0.11
2023-01-19T08:19:43.338Z,0.12
2023-01-19T08:22:11.123Z,0.11
2023-01-19T08:24:39.116Z,0.16
2023-01-19T08:27:09.782Z,0.15
2023-01-19T08:29:38.222Z,0.21
2023-01-19T08:32:06.986Z,0.20
2023-01-19T08:34:35.017Z,0.23
2023-01-19T08:37:02.801Z,0.21
2023-01-19T08:39:30.559Z,0.25
2023-01-19T08:41:59.645Z,0.30
2023-01-19T08:44:29.128Z,0.32
2023-01-19T08:46:56.982Z,0.32
2023-01-19T08:49:24.933Z,0.38
2023-01-19T08:51:52.732Z,0.43
2023-01-19T08:54:21.703Z,0.39
2023-01-19T08:56:49.868Z,0.42
2023-01-19T08:59:18.153Z,0.45
2023-01-19T09:01:48.113Z,0.50
2023-01-19T09:04:16.093Z,0.52
2023-01-19T09:06:43.883Z,0.52
2023-01-19T09:09:11.802Z,0.57
2023-01-19T09:11:39.561Z,0.48
2023-01-19T09:14:08.331Z,0.44
2023-01-19T09:16:36.313Z,0.46
2023-01-19T09:19:08.481Z,0.54
2023-01-19T09:21:36.488Z,0.57
2023-01-19T09:24:04.501Z,0.59
2023-01-19T09:26:33.281Z,0.60
2023-01-19T09:29:01.191Z,0.63
2023-01-19T09:31:29.206Z,0.67
2023-01-19T09:33:57.045Z,0.65
2023-01-19T09:36:26.327Z,0.62
2023-01-19T09:38:54.146Z,0.64
2023-01-19T09:41:24.985Z,0.63
2023-01-19T09:43:57.680Z,0.68
2023-01-19T09:46:31.147Z,0.72
2023-01-19T09:49:04.809Z,0.69
2023-01-19T09:51:37.460Z,0.71
2023-01-19T09:54:12.064Z,0.73
2023-01-19T09:56:40.064Z,0.74
2023-01-19T09:59:20.648Z,0.78
2023-01-19T10:02:05.578Z,0.83
2023-01-19T10:04:38.678Z,0.87
2023-01-19T10:07:17.124Z,0.92
2023-01-19T10:10:08.359Z,0.97
2023-01-19T10:12:44.660Z,0.99
2023-01-19T10:15:24.549Z,1.01
2023-01-19T10:18:03.890Z,1.02
2023-01-19T10:20:37.682Z,1.04
2023-01-19T10:23:26.300Z,1.05
2023-01-19T10:25:56.045Z,1.06
2023-01-19T10:28:26.667Z,1.13
2023-01-19T10:30:56.357Z,1.09
2023-01-19T10:33:24.490Z,1.09
2023-01-19T10:35:52.781Z,1.00
2023-01-19T10:38:22.717Z,1.06
2023-01-19T10:40:58.443Z,1.07
2023-01-19T10:43:41.552Z,1.01
2023-01-19T10:46:18.543Z,1.01
2023-01-19T10:48:50.410Z,1.06
2023-01-19T10:51:19.049Z,1.09
2023-01-19T10:53:58.778Z,1.13
2023-01-19T10:56:30.882Z,1.15
2023-01-19T10:59:01.693Z,1.16
2023-01-19T11:01:31.157Z,1.14
2023-01-19T11:04:05.455Z,1.13
2023-01-19T11:06:35.638Z,1.17
2023-01-19T11:09:18.522Z,1.18
2023-01-19T11:11:50.046Z,1.17
2023-01-19T11:14:20.938Z,1.19
2023-01-19T11:16:51.525Z,1.20
2023-01-19T11:19:27.505Z,1.21
2023-01-19T11:22:10.996Z,1.28
2023-01-19T11:24:41.046Z,1.37
2023-01-19T11:27:08.950Z,1.44
2023-01-19T11:29:38.907Z,1.49
2023-01-19T11:32:21.142Z,1.53
2023-01-19T11:34:49.569Z,1.60
2023-01-19T11:37:34.500Z,1.65
2023-01-19T11:40:08.679Z,1.69
2023-01-19T11:42:37.627Z,1.71
2023-01-19T11:45:13.577Z,1.78
2023-01-19T11:47:44.317Z,1.82
2023-01-19T11:50:22.412Z,1.85
2023-01-19T11:52:54.468Z,1.90
2023-01-19T11:55:38.970Z,1.94
2023-01-19T11:58:07.093Z,1.97
2023-01-19T12:00:38.577Z,1.98
2023-01-19T12:03:15.051Z,2.03
2023-01-19T12:05:48.731Z,2.05
2023-01-19T12:08:21.756Z,2.12
2023-01-19T12:10:54.187Z,2.16
2023-01-19T12:13:24.232Z,2.25
2023-01-19T12:15:57.749Z,2.26
2023-01-19T12:18:29.335Z,2.37
2023-01-19T12:20:58.701Z,2.58
2023-01-19T12:23:36.775Z,3.12
2023-01-19T12:26:31.846Z,3.67
2023-01-19T12:29:04.638Z,3.97
2023-01-19T12:31:32.717Z,4.14
2023-01-19T12:34:36.038Z,4.31
2023-01-19T12:37:05.726Z,4.52
2023-01-19T12:39:35.336Z,4.67
2023-01-19T12:42:14.512Z,4.81
2023-01-19T12:44:43.437Z,4.72
2023-01-19T12:47:24.439Z,4.78
2023-01-19T12:49:56.432Z,5.20
2023-01-19T12:52:34.170Z,4.94
2023-01-19T12:55:07.702Z,5.09
2023-01-19T12:57:41.711Z,4.76
2023-01-19T13:00:30.480Z,4.65
2023-01-19T13:02:59.894Z,4.49
2023-01-19T13:05:57.859Z,4.60
2023-01-19T13:08:29.756Z,4.31
2023-01-19T13:11:20.727Z,4.27
2023-01-19T13:14:28.213Z,4.21
2023-01-19T13:17:22.285Z,4.17
2023-01-19T13:19:59.401Z,4.26
2023-01-19T13:23:04.587Z,4.24
2023-01-19T13:25:36.412Z,4.66
2023-01-19T13:28:10.434Z,4.39
2023-01-19T13:30:48.342Z,4.24
2023-01-19T13:33:22.547Z,4.28
2023-01-19T13:35:53.828Z,4.19
2023-01-19T13:38:24.031Z,4.16
2023-01-19T13:40:52.885Z,3.96
2023-01-19T13:43:27.674Z,3.91
2023-01-19T13:45:56.383Z,3.75
2023-01-19T13:48:26.565Z,3.70
2023-01-19T13:50:59.624Z,3.72
2023-01-19T13:53:27.825Z,3.79
2023-01-19T13:56:20.455Z,3.99
2023-01-19T13:59:15.603Z,4.11
2023-01-19T14:01:44.117Z,4.06
2023-01-19T14:04:28.931Z,4.06
2023-01-19T14:06:59.778Z,4.09
2023-01-19T14:09:27.635Z,3.96
2023-01-19T14:12:12.943Z,3.91
2023-01-19T14:14:41.076Z,4.04
2023-01-19T14:17:23.247Z,4.00
2023-01-19T14:19:53.866Z,3.94
2023-01-19T14:22:22.379Z,3.92
2023-01-19T14:24:50.208Z,3.88
2023-01-19T14:27:20.981Z,3.73
2023-01-19T14:29:50.621Z,3.68
2023-01-19T14:32:20.713Z,3.57
2023-01-19T14:34:51.121Z,3.49
2023-01-19T14:37:29.012Z,3.54
2023-01-19T14:40:04.437Z,3.58
2023-01-19T14:42:35.847Z,3.52
2023-01-19T14:45:07.359Z,3.53
2023-01-19T14:47:38.636Z,3.48
2023-01-19T14:50:20.577Z,3.54
2023-01-19T14:52:56.293Z,3.50
2023-01-19T14:55:28.892Z,3.50
2023-01-19T14:57:56.718Z,3.54
2023-01-19T15:00:25.252Z,3.55
2023-01-19T15:02:53.398Z,3.55
2023-01-19T15:05:21.500Z,3.60
2023-01-19T15:07:49.367Z,3.60
2023-01-19T15:10:21.739Z,3.46
2023-01-19T15:12:50.811Z,3.44
2023-01-19T15:15:22.655Z,3.40
2023-01-19T15:17:51.269Z,3.32
2023-01-19T15:20:20.825Z,3.33
2023-01-19T15:22:49.559Z,3.36
2023-01-19T15:25:20.696Z,3.35
2023-01-19T15:27:49.622Z,3.32
2023-01-19T15:30:20.566Z,3.33
2023-01-19T15:32:48.634Z,3.28
2023-01-19T15:35:19.150Z,3.28
2023-01-19T15:37:47.453Z,3.24
2023-01-19T15:40:16.254Z,3.21
2023-01-19T15:42:45.919Z,3.22
2023-01-19T15:45:35.870Z,3.16
2023-01-19T15:48:05.794Z,3.20
2023-01-19T15:50:34.481Z,3.17
2023-01-19T15:53:02.610Z,3.10
2023-01-19T15:55:30.398Z,3.17
2023-01-19T15:58:01.590Z,3.15
2023-01-19T16:00:32.427Z,3.12
2023-01-19T16:03:02.078Z,3.04
2023-01-19T16:05:42.516Z,3.03
2023-01-19T16:08:11.580Z,2.99
2023-01-19T16:10:39.445Z,2.99
2023-01-19T16:13:08.873Z,3.01
2023-01-19T16:15:37.404Z,3.01
2023-01-19T16:18:06.131Z,3.00
2023-01-19T16:20:34.082Z,3.03
2023-01-19T16:23:14.603Z,3.03
2023-01-19T16:25:43.098Z,3.04
2023-01-19T16:28:12.411Z,3.03
2023-01-19T16:30:40.373Z,3.05
2023-01-19T16:33:11.505Z,2.99
2023-01-19T16:35:39.541Z,2.98
2023-01-19T16:38:09.299Z,2.97
2023-01-19T16:40:37.581Z,2.94
2023-01-19T16:43:05.503Z,2.96
2023-01-19T16:45:34.752Z,2.93
2023-01-19T16:48:02.793Z,2.92
2023-01-19T16:50:30.565Z,2.93
2023-01-19T16:52:59.026Z,2.94
2023-01-19T16:55:26.943Z,2.92
2023-01-19T16:57:56.382Z,2.89
2023-01-19T17:00:24.525Z,2.86
2023-01-19T17:02:53.818Z,2.86
2023-01-19T17:05:22.242Z,2.87
2023-01-19T17:07:50.053Z,2.88
2023-01-19T17:10:18.237Z,2.89
2023-01-19T17:12:46.493Z,2.93
2023-01-19T17:15:14.517Z,2.88
2023-01-19T17:17:42.469Z,2.89
2023-01-19T17:20:13.036Z,2.90
2023-01-19T17:22:41.144Z,2.86
2023-01-19T17:25:09.702Z,2.84
2023-01-19T17:27:37.526Z,2.84
2023-01-19T17:30:06.014Z,2.81
2023-01-19T17:32:33.818Z,2.79
2023-01-19T17:35:02.146Z,2.73
2023-01-19T17:37:31.613Z,2.76
2023-01-19T17:39:59.640Z,2.76
2023-01-19T17:42:28.524Z,2.75
2023-01-19T17:44:58.751Z,2.70
2023-01-19T17:47:28.227Z,2.68
2023-01-19T17:49:56.154Z,2.69
2023-01-19T17:52:23.964Z,2.69
2023-01-19T17:54:53.247Z,2.69
2023-01-19T17:57:21.144Z,2.67
2023-01-19T17:59:48.989Z,2.64
2023-01-19T18:02:16.926Z,2.60
2023-01-19T18:04:44.990Z,2.44
2023-01-19T18:07:12.810Z,2.36
2023-01-19T18:09:40.630Z,2.39
2023-01-19T18:12:10.126Z,2.43
2023-01-19T18:14:38.683Z,2.48
2023-01-19T18:17:06.723Z,2.44
2023-01-19T18:19:34.870Z,2.42
2023-01-19T18:22:03.398Z,2.38
2023-01-19T18:24:31.295Z,2.34
2023-01-19T18:26:59.110Z,2.29
2023-01-19T18:32:27.108Z,2.30
2023-01-19T18:34:55.102Z,2.29
2023-01-19T18:37:23.001Z,2.27
2023-01-19T18:39:50.860Z,2.22
2023-01-19T18:42:19.014Z,2.15
2023-01-19T18:44:48.286Z,2.07
2023-01-19T18:47:16.168Z,2.03
2023-01-19T18:49:44.252Z,1.96
2023-01-19T18:52:12.330Z,1.91
2023-01-19T18:54:40.130Z,1.87
2023-01-19T18:57:08.038Z,1.78
2023-01-19T18:59:35.870Z,1.76
2023-01-19T19:02:06.748Z,1.77
2023-01-19T19:04:34.732Z,1.79
2023-01-19T19:07:02.534Z,1.79
2023-01-19T19:09:30.437Z,1.80
2023-01-19T19:11:58.320Z,1.77
2023-01-19T19:14:26.359Z,1.76
2023-01-19T19:16:54.216Z,1.71
2023-01-19T19:19:23.412Z,1.65
2023-01-19T19:21:52.109Z,1.69
2023-01-19T19:24:20.277Z,1.62
2023-01-19T19:26:48.164Z,1.62
2023-01-19T19:29:15.951Z,1.60
2023-01-19T19:31:43.841Z,1.60
2023-01-19T19:34:12.650Z,1.63
2023-01-19T19:36:42.067Z,1.66
2023-01-19T19:39:10.147Z,1.62
2023-01-19T19:41:38.818Z,1.55
2023-01-19T19:44:06.858Z,1.49
2023-01-19T19:46:34.751Z,1.48
2023-01-19T19:49:02.622Z,1.45
2023-01-19T19:51:30.464Z,1.39
2023-01-19T19:54:01.844Z,1.40
2023-01-19T19:56:30.973Z,1.41
2023-01-19T19:59:00.889Z,1.44
2023-01-19T20:01:33.551Z,1.43
2023-01-19T20:04:07.045Z,1.40
2023-01-19T20:06:38.590Z,1.44
2023-01-19T20:09:09.803Z,1.49
2023-01-19T20:11:38.780Z,1.54
2023-01-19T20:14:06.796Z,1.58
2023-01-19T20:16:34.696Z,1.63
2023-01-19T20:19:02.885Z,1.63
2023-01-19T20:21:32.320Z,1.62
2023-01-19T20:24:01.937Z,1.64
2023-01-19T20:26:40.158Z,1.63
2023-01-19T20:29:10.133Z,1.64
2023-01-19T20:31:56.181Z,1.59
2023-01-19T20:34:27.894Z,1.56
2023-01-19T20:36:56.814Z,1.48
2023-01-19T20:39:25.832Z,1.46
2023-01-19T20:41:55.032Z,1.51
2023-01-19T20:44:26.594Z,1.47
2023-01-19T20:46:55.729Z,1.44
2023-01-19T20:49:23.927Z,1.44
2023-01-19T20:51:52.649Z,1.46
2023-01-19T20:54:24.290Z,1.46
2023-01-19T20:56:52.235Z,1.47
2023-01-19T20:59:21.452Z,1.51
2023-01-19T21:01:49.816Z,1.49
2023-01-19T21:04:18.374Z,1.54
2023-01-19T21:06:46.303Z,1.54
2023-01-19T21:09:14.193Z,1.54
2023-01-19T21:11:42.031Z,1.57
2023-01-19T21:14:09.967Z,1.60
2023-01-19T21:16:39.188Z,1.61
2023-01-19T21:19:07.093Z,1.65
2023-01-19T21:21:34.936Z,1.59
2023-01-19T21:24:04.586Z,1.56
2023-01-19T21:26:33.341Z,1.60
2023-01-19T21:29:02.844Z,1.62
2023-01-19T21:31:31.345Z,1.63
2023-01-19T21:34:00.726Z,1.64
2023-01-19T21:36:28.516Z,1.54
2023-01-19T21:39:00.485Z,1.45
2023-01-19T21:41:30.416Z,1.44
2023-01-19T21:43:58.493Z,1.37
2023-01-19T21:46:29.018Z,1.39
2023-01-19T21:48:57.222Z,1.44
2023-01-19T21:51:26.494Z,1.46
2023-01-19T21:53:55.966Z,1.46
2023-01-19T21:56:23.926Z,1.44
2023-01-19T21:58:51.782Z,1.45
2023-01-19T22:01:20.727Z,1.48
2023-01-19T22:03:48.586Z,1.54
2023-01-19T22:06:16.767Z,1.55
2023-01-19T22:08:47.046Z,1.55
2023-01-19T22:11:17.159Z,1.57
2023-01-19T22:13:45.638Z,1.60
2023-01-19T22:16:15.989Z,1.60
2023-01-19T22:18:46.303Z,1.66
2023-01-19T22:21:16.153Z,1.63
2023-01-19T22:23:45.688Z,1.66
2023-01-19T22:26:13.651Z,1.67
2023-01-19T22:28:41.513Z,1.65
2023-01-19T22:31:12.490Z,1.66
2023-01-19T22:33:40.627Z,1.70
2023-01-19T22:36:14.984Z,1.73
2023-01-19T22:38:44.319Z,1.71
2023-01-19T22:41:15.251Z,1.66
2023-01-19T22:43:43.648Z,1.71
2023-01-19T22:46:11.943Z,1.74
2023-01-19T22:48:40.413Z,1.78
2023-01-19T22:51:08.533Z,1.83
2023-01-19T22:53:36.352Z,1.76
2023-01-19T22:56:12.154Z,1.75
2023-01-19T22:58:41.570Z,1.70
2023-01-19T23:01:10.873Z,1.66
2023-01-19T23:03:39.299Z,1.67
2023-01-19T23:06:08.452Z,1.66
2023-01-19T23:08:37.063Z,1.71
2023-01-19T23:11:06.346Z,1.72
2023-01-19T23:13:34.780Z,1.72
2023-01-19T23:16:04.622Z,1.70
2023-01-19T23:18:33.343Z,1.65
2023-01-19T23:21:04.885Z,1.66
2023-01-19T23:23:33.300Z,1.65
2023-01-19T23:26:02.365Z,1.65
2023-01-19T23:28:30.240Z,1.68
2023-01-19T23:30:58.617Z,1.63
2023-01-19T23:33:28.077Z,1.54
2023-01-19T23:35:56.517Z,1.53
2023-01-19T23:38:24.413Z,1.51
2023-01-19T23:40:52.266Z,1.56
2023-01-19T23:43:20.577Z,1.46
2023-01-19T23:45:49.013Z,1.42
2023-01-19T23:48:16.906Z,1.37
2023-01-19T23:50:46.149Z,1.35
2023-01-19T23:53:14.144Z,1.27
2023-01-19T23:55:41.958Z,1.23
2023-01-19T23:58:09.810Z,1.24
